Terminal Aerodrome Forecast
Issued by NWS

Home | Current Version | Previous Version | Text Only | Print | Product List | Glossary On
Versions: 1 2 3 4 5 6 7 8 9 10 11 12 13 14
000
FTUS44 KBMX 230800 AAA
TAFEET
TAF AMD
KEET 230834Z 2309/2406 00000KT 3SM BR SKC
      TEMPO 2309/2313 1SM BR SCT003
     FM231300 35006KT P6SM SKC=

USA.gov is the U.S. government's official web portal to all federal, state and local government web resources and services.